sensor_id;sensor_type;location;lat;lon;timestamp;P1;durP1;ratioP1;P2;durP2;ratioP2
2712;SDS011;1366;47.988;7.856;2023-05-16T00:00:18;6.17;;;5.53;;
2712;SDS011;1366;47.988;7.856;2023-05-16T00:02:45;6.20;;;5.70;;
2712;SDS011;1366;47.988;7.856;2023-05-16T00:05:12;7.50;;;5.63;;
2712;SDS011;1366;47.988;7.856;2023-05-16T00:07:42;6.10;;;5.60;;
2712;SDS011;1366;47.988;7.856;2023-05-16T00:10:08;6.50;;;5.90;;
2712;SDS011;1366;47.988;7.856;2023-05-16T00:12:35;6.93;;;6.30;;
2712;SDS011;1366;47.988;7.856;2023-05-16T00:15:01;6.10;;;5.70;;
2712;SDS011;1366;47.988;7.856;2023-05-16T00:17:29;6.60;;;5.90;;
2712;SDS011;1366;47.988;7.856;2023-05-16T00:19:56;5.67;;;5.10;;
2712;SDS011;1366;47.988;7.856;2023-05-16T00:22:25;5.80;;;5.40;;
2712;SDS011;1366;47.988;7.856;2023-05-16T00:24:51;6.87;;;6.23;;
2712;SDS011;1366;47.988;7.856;2023-05-16T00:27:17;6.00;;;5.50;;
2712;SDS011;1366;47.988;7.856;2023-05-16T00:29:43;7.23;;;6.13;;
2712;SDS011;1366;47.988;7.856;2023-05-16T00:32:09;5.40;;;5.00;;
2712;SDS011;1366;47.988;7.856;2023-05-16T00:34:35;8.20;;;5.83;;
2712;SDS011;1366;47.988;7.856;2023-05-16T00:37:01;5.80;;;5.40;;
2712;SDS011;1366;47.988;7.856;2023-05-16T00:39:28;6.20;;;5.80;;
2712;SDS011;1366;47.988;7.856;2023-05-16T00:41:54;6.60;;;6.00;;
2712;SDS011;1366;47.988;7.856;2023-05-16T00:44:21;5.97;;;5.47;;
2712;SDS011;1366;47.988;7.856;2023-05-16T00:46:47;6.57;;;6.07;;
2712;SDS011;1366;47.988;7.856;2023-05-16T00:49:13;6.23;;;5.70;;
2712;SDS011;1366;47.988;7.856;2023-05-16T00:51:39;5.53;;;5.03;;
2712;SDS011;1366;47.988;7.856;2023-05-16T00:54:06;6.33;;;5.83;;
2712;SDS011;1366;47.988;7.856;2023-05-16T00:56:32;6.40;;;5.90;;
2712;SDS011;1366;47.988;7.856;2023-05-16T00:58:58;6.20;;;5.80;;
2712;SDS011;1366;47.988;7.856;2023-05-16T01:01:24;5.97;;;5.57;;
2712;SDS011;1366;47.988;7.856;2023-05-16T01:03:51;6.07;;;5.67;;
2712;SDS011;1366;47.988;7.856;2023-05-16T01:06:17;6.30;;;5.43;;
2712;SDS011;1366;47.988;7.856;2023-05-16T01:08:43;6.53;;;6.03;;
2712;SDS011;1366;47.988;7.856;2023-05-16T01:16:38;5.70;;;5.30;;
2712;SDS011;1366;47.988;7.856;2023-05-16T01:19:09;6.50;;;6.00;;
2712;SDS011;1366;47.988;7.856;2023-05-16T01:24:13;6.70;;;6.10;;
2712;SDS011;1366;47.988;7.856;2023-05-16T01:26:40;6.63;;;6.13;;
2712;SDS011;1366;47.988;7.856;2023-05-16T01:29:06;5.70;;;5.30;;
2712;SDS011;1366;47.988;7.856;2023-05-16T01:31:32;6.50;;;6.00;;
2712;SDS011;1366;47.988;7.856;2023-05-16T01:33:58;5.87;;;5.40;;
2712;SDS011;1366;47.988;7.856;2023-05-16T01:44:17;6.33;;;5.73;;
2712;SDS011;1366;47.988;7.856;2023-05-16T01:46:45;6.37;;;5.83;;
2712;SDS011;1366;47.988;7.856;2023-05-16T01:52:14;6.50;;;6.00;;
2712;SDS011;1366;47.988;7.856;2023-05-16T01:54:42;5.93;;;5.43;;
2712;SDS011;1366;47.988;7.856;2023-05-16T01:57:09;6.90;;;6.30;;
2712;SDS011;1366;47.988;7.856;2023-05-16T01:59:36;6.73;;;6.23;;
2712;SDS011;1366;47.988;7.856;2023-05-16T02:02:03;5.90;;;5.50;;
2712;SDS011;1366;47.988;7.856;2023-05-16T02:04:30;6.67;;;6.17;;
2712;SDS011;1366;47.988;7.856;2023-05-16T02:06:56;7.90;;;6.60;;
2712;SDS011;1366;47.988;7.856;2023-05-16T02:09:24;6.53;;;6.03;;
2712;SDS011;1366;47.988;7.856;2023-05-16T02:11:50;7.57;;;7.07;;
2712;SDS011;1366;47.988;7.856;2023-05-16T02:14:16;7.40;;;6.70;;
2712;SDS011;1366;47.988;7.856;2023-05-16T02:16:42;7.20;;;6.50;;
2712;SDS011;1366;47.988;7.856;2023-05-16T02:19:08;6.77;;;6.27;;
2712;SDS011;1366;47.988;7.856;2023-05-16T02:21:34;7.73;;;7.03;;
2712;SDS011;1366;47.988;7.856;2023-05-16T02:24:00;7.50;;;6.90;;
2712;SDS011;1366;47.988;7.856;2023-05-16T02:26:26;7.50;;;6.90;;
2712;SDS011;1366;47.988;7.856;2023-05-16T02:28:53;7.70;;;7.00;;
2712;SDS011;1366;47.988;7.856;2023-05-16T02:31:28;7.50;;;6.90;;
2712;SDS011;1366;47.988;7.856;2023-05-16T02:33:55;8.90;;;7.27;;
2712;SDS011;1366;47.988;7.856;2023-05-16T02:36:22;7.90;;;7.30;;
2712;SDS011;1366;47.988;7.856;2023-05-16T02:38:48;8.90;;;8.10;;
2712;SDS011;1366;47.988;7.856;2023-05-16T02:41:14;9.07;;;8.27;;
2712;SDS011;1366;47.988;7.856;2023-05-16T02:43:40;9.00;;;8.10;;
2712;SDS011;1366;47.988;7.856;2023-05-16T02:46:20;8.83;;;8.03;;
2712;SDS011;1366;47.988;7.856;2023-05-16T02:48:46;9.00;;;8.33;;
2712;SDS011;1366;47.988;7.856;2023-05-16T02:51:12;7.60;;;6.90;;
2712;SDS011;1366;47.988;7.856;2023-05-16T02:53:38;9.07;;;8.27;;
2712;SDS011;1366;47.988;7.856;2023-05-16T02:56:04;9.07;;;8.37;;
2712;SDS011;1366;47.988;7.856;2023-05-16T02:58:31;8.67;;;7.97;;
2712;SDS011;1366;47.988;7.856;2023-05-16T03:00:57;10.87;;;9.77;;
2712;SDS011;1366;47.988;7.856;2023-05-16T03:03:23;9.77;;;8.90;;
2712;SDS011;1366;47.988;7.856;2023-05-16T03:05:50;10.23;;;9.43;;
2712;SDS011;1366;47.988;7.856;2023-05-16T03:08:16;10.40;;;9.50;;
2712;SDS011;1366;47.988;7.856;2023-05-16T03:10:42;9.67;;;8.67;;
2712;SDS011;1366;47.988;7.856;2023-05-16T03:13:08;14.10;;;9.17;;
2712;SDS011;1366;47.988;7.856;2023-05-16T03:15:34;11.30;;;10.23;;
2712;SDS011;1366;47.988;7.856;2023-05-16T03:18:00;11.63;;;10.50;;
2712;SDS011;1366;47.988;7.856;2023-05-16T03:20:26;11.87;;;10.77;;
2712;SDS011;1366;47.988;7.856;2023-05-16T03:22:52;12.33;;;10.97;;
2712;SDS011;1366;47.988;7.856;2023-05-16T03:25:18;12.23;;;11.07;;
2712;SDS011;1366;47.988;7.856;2023-05-16T03:27:45;11.80;;;10.70;;
2712;SDS011;1366;47.988;7.856;2023-05-16T03:30:11;11.73;;;10.63;;
2712;SDS011;1366;47.988;7.856;2023-05-16T03:32:37;11.63;;;10.50;;
2712;SDS011;1366;47.988;7.856;2023-05-16T03:35:03;12.17;;;11.07;;
2712;SDS011;1366;47.988;7.856;2023-05-16T03:37:30;12.47;;;11.27;;
2712;SDS011;1366;47.988;7.856;2023-05-16T03:39:56;13.73;;;12.43;;
2712;SDS011;1366;47.988;7.856;2023-05-16T03:42:22;14.87;;;11.97;;
2712;SDS011;1366;47.988;7.856;2023-05-16T03:44:48;13.00;;;11.63;;
2712;SDS011;1366;47.988;7.856;2023-05-16T03:47:14;12.47;;;11.23;;
2712;SDS011;1366;47.988;7.856;2023-05-16T03:49:40;15.83;;;11.47;;
2712;SDS011;1366;47.988;7.856;2023-05-16T03:52:06;13.07;;;11.90;;
2712;SDS011;1366;47.988;7.856;2023-05-16T03:54:32;13.57;;;12.00;;
2712;SDS011;1366;47.988;7.856;2023-05-16T03:56:58;13.30;;;12.00;;
2712;SDS011;1366;47.988;7.856;2023-05-16T03:59:24;14.03;;;12.60;;
2712;SDS011;1366;47.988;7.856;2023-05-16T04:01:50;14.20;;;12.80;;
2712;SDS011;1366;47.988;7.856;2023-05-16T04:04:16;15.60;;;11.47;;
2712;SDS011;1366;47.988;7.856;2023-05-16T04:06:42;13.47;;;12.17;;
2712;SDS011;1366;47.988;7.856;2023-05-16T04:09:08;13.23;;;12.00;;
2712;SDS011;1366;47.988;7.856;2023-05-16T04:11:35;14.07;;;12.50;;
2712;SDS011;1366;47.988;7.856;2023-05-16T04:14:02;13.87;;;12.47;;
2712;SDS011;1366;47.988;7.856;2023-05-16T04:16:28;16.17;;;14.23;;
2712;SDS011;1366;47.988;7.856;2023-05-16T04:18:54;14.13;;;12.77;;
2712;SDS011;1366;47.988;7.856;2023-05-16T04:21:21;14.27;;;12.70;;
2712;SDS011;1366;47.988;7.856;2023-05-16T04:23:47;15.13;;;13.53;;
2712;SDS011;1366;47.988;7.856;2023-05-16T04:26:13;13.33;;;12.10;;
2712;SDS011;1366;47.988;7.856;2023-05-16T04:28:39;14.80;;;13.40;;
2712;SDS011;1366;47.988;7.856;2023-05-16T04:31:05;12.67;;;11.37;;
2712;SDS011;1366;47.988;7.856;2023-05-16T04:33:32;12.50;;;11.27;;
2712;SDS011;1366;47.988;7.856;2023-05-16T04:35:58;12.80;;;11.50;;
2712;SDS011;1366;47.988;7.856;2023-05-16T04:38:24;14.43;;;13.03;;
2712;SDS011;1366;47.988;7.856;2023-05-16T04:40:51;15.30;;;13.70;;
2712;SDS011;1366;47.988;7.856;2023-05-16T04:43:17;15.47;;;13.40;;
2712;SDS011;1366;47.988;7.856;2023-05-16T04:45:43;15.23;;;13.67;;
2712;SDS011;1366;47.988;7.856;2023-05-16T04:48:10;14.90;;;13.40;;
2712;SDS011;1366;47.988;7.856;2023-05-16T04:50:37;15.73;;;14.13;;
2712;SDS011;1366;47.988;7.856;2023-05-16T04:53:03;14.50;;;13.10;;
2712;SDS011;1366;47.988;7.856;2023-05-16T04:55:29;13.93;;;12.50;;
2712;SDS011;1366;47.988;7.856;2023-05-16T04:57:55;15.03;;;13.43;;
2712;SDS011;1366;47.988;7.856;2023-05-16T05:00:21;14.40;;;13.00;;
2712;SDS011;1366;47.988;7.856;2023-05-16T05:02:48;15.27;;;13.73;;
2712;SDS011;1366;47.988;7.856;2023-05-16T05:05:14;13.27;;;11.87;;
2712;SDS011;1366;47.988;7.856;2023-05-16T05:07:40;15.63;;;14.00;;
2712;SDS011;1366;47.988;7.856;2023-05-16T05:10:06;17.03;;;14.43;;
2712;SDS011;1366;47.988;7.856;2023-05-16T05:12:34;16.60;;;13.90;;
2712;SDS011;1366;47.988;7.856;2023-05-16T05:15:00;15.60;;;13.90;;
2712;SDS011;1366;47.988;7.856;2023-05-16T05:17:26;15.90;;;14.10;;
2712;SDS011;1366;47.988;7.856;2023-05-16T05:19:52;17.00;;;15.20;;
2712;SDS011;1366;47.988;7.856;2023-05-16T05:22:18;17.00;;;14.70;;
2712;SDS011;1366;47.988;7.856;2023-05-16T05:24:44;18.70;;;16.13;;
2712;SDS011;1366;47.988;7.856;2023-05-16T05:27:10;21.50;;;16.77;;
2712;SDS011;1366;47.988;7.856;2023-05-16T05:29:36;17.63;;;15.07;;
2712;SDS011;1366;47.988;7.856;2023-05-16T05:32:03;17.17;;;14.87;;
2712;SDS011;1366;47.988;7.856;2023-05-16T05:34:29;18.13;;;15.00;;
2712;SDS011;1366;47.988;7.856;2023-05-16T05:36:55;17.27;;;14.97;;
2712;SDS011;1366;47.988;7.856;2023-05-16T05:39:21;17.60;;;15.53;;
2712;SDS011;1366;47.988;7.856;2023-05-16T05:41:48;16.57;;;14.43;;
2712;SDS011;1366;47.988;7.856;2023-05-16T05:44:14;19.00;;;15.73;;
2712;SDS011;1366;47.988;7.856;2023-05-16T05:46:40;17.60;;;15.13;;
2712;SDS011;1366;47.988;7.856;2023-05-16T05:49:06;19.87;;;16.30;;
2712;SDS011;1366;47.988;7.856;2023-05-16T05:51:32;20.97;;;17.07;;
2712;SDS011;1366;47.988;7.856;2023-05-16T05:53:58;23.13;;;17.97;;
2712;SDS011;1366;47.988;7.856;2023-05-16T05:56:24;22.20;;;17.70;;
2712;SDS011;1366;47.988;7.856;2023-05-16T05:58:50;22.00;;;16.70;;
2712;SDS011;1366;47.988;7.856;2023-05-16T06:01:17;24.60;;;18.23;;
2712;SDS011;1366;47.988;7.856;2023-05-16T06:03:45;20.57;;;16.50;;
2712;SDS011;1366;47.988;7.856;2023-05-16T06:06:11;22.07;;;17.00;;
2712;SDS011;1366;47.988;7.856;2023-05-16T06:08:38;22.67;;;17.37;;
2712;SDS011;1366;47.988;7.856;2023-05-16T06:11:05;24.30;;;17.10;;
2712;SDS011;1366;47.988;7.856;2023-05-16T06:13:31;22.37;;;17.37;;
2712;SDS011;1366;47.988;7.856;2023-05-16T06:15:57;21.60;;;16.30;;
2712;SDS011;1366;47.988;7.856;2023-05-16T06:18:23;22.33;;;15.87;;
2712;SDS011;1366;47.988;7.856;2023-05-16T06:20:49;22.03;;;16.10;;
2712;SDS011;1366;47.988;7.856;2023-05-16T06:23:16;22.97;;;17.00;;
2712;SDS011;1366;47.988;7.856;2023-05-16T06:25:42;24.70;;;17.57;;
2712;SDS011;1366;47.988;7.856;2023-05-16T06:28:08;22.27;;;16.93;;
2712;SDS011;1366;47.988;7.856;2023-05-16T06:30:34;22.57;;;16.87;;
2712;SDS011;1366;47.988;7.856;2023-05-16T06:33:00;20.93;;;15.80;;
2712;SDS011;1366;47.988;7.856;2023-05-16T06:35:26;23.93;;;17.10;;
2712;SDS011;1366;47.988;7.856;2023-05-16T06:37:52;22.20;;;15.90;;
2712;SDS011;1366;47.988;7.856;2023-05-16T06:40:18;19.83;;;15.10;;
2712;SDS011;1366;47.988;7.856;2023-05-16T06:42:44;20.20;;;15.53;;
2712;SDS011;1366;47.988;7.856;2023-05-16T06:45:10;20.40;;;15.20;;
2712;SDS011;1366;47.988;7.856;2023-05-16T06:47:37;22.90;;;15.70;;
2712;SDS011;1366;47.988;7.856;2023-05-16T06:50:03;23.00;;;17.17;;
2712;SDS011;1366;47.988;7.856;2023-05-16T06:52:29;20.20;;;15.97;;
2712;SDS011;1366;47.988;7.856;2023-05-16T06:54:55;20.20;;;14.43;;
2712;SDS011;1366;47.988;7.856;2023-05-16T06:57:21;17.30;;;14.47;;
2712;SDS011;1366;47.988;7.856;2023-05-16T06:59:47;20.77;;;15.23;;
2712;SDS011;1366;47.988;7.856;2023-05-16T07:02:13;18.23;;;14.17;;
2712;SDS011;1366;47.988;7.856;2023-05-16T07:04:39;18.67;;;14.90;;
2712;SDS011;1366;47.988;7.856;2023-05-16T07:07:05;17.67;;;14.80;;
2712;SDS011;1366;47.988;7.856;2023-05-16T07:09:33;22.83;;;15.43;;
2712;SDS011;1366;47.988;7.856;2023-05-16T07:11:59;18.37;;;14.37;;
2712;SDS011;1366;47.988;7.856;2023-05-16T07:14:25;18.50;;;13.87;;
2712;SDS011;1366;47.988;7.856;2023-05-16T07:16:51;18.60;;;14.70;;
2712;SDS011;1366;47.988;7.856;2023-05-16T07:19:17;19.37;;;14.37;;
2712;SDS011;1366;47.988;7.856;2023-05-16T07:21:43;18.30;;;14.23;;
2712;SDS011;1366;47.988;7.856;2023-05-16T07:24:09;16.23;;;13.40;;
2712;SDS011;1366;47.988;7.856;2023-05-16T07:26:35;18.00;;;14.23;;
2712;SDS011;1366;47.988;7.856;2023-05-16T07:29:01;20.57;;;16.00;;
2712;SDS011;1366;47.988;7.856;2023-05-16T07:31:28;20.23;;;15.30;;
2712;SDS011;1366;47.988;7.856;2023-05-16T07:33:55;20.33;;;15.20;;
2712;SDS011;1366;47.988;7.856;2023-05-16T07:36:21;19.80;;;15.13;;
2712;SDS011;1366;47.988;7.856;2023-05-16T07:38:47;23.37;;;16.80;;
2712;SDS011;1366;47.988;7.856;2023-05-16T07:41:13;19.77;;;16.13;;
2712;SDS011;1366;47.988;7.856;2023-05-16T07:43:39;20.47;;;15.73;;
2712;SDS011;1366;47.988;7.856;2023-05-16T07:46:05;22.90;;;16.40;;
2712;SDS011;1366;47.988;7.856;2023-05-16T07:48:31;25.60;;;18.13;;
2712;SDS011;1366;47.988;7.856;2023-05-16T07:50:57;22.87;;;17.97;;
2712;SDS011;1366;47.988;7.856;2023-05-16T07:53:23;24.67;;;16.80;;
2712;SDS011;1366;47.988;7.856;2023-05-16T07:55:49;21.73;;;16.50;;
2712;SDS011;1366;47.988;7.856;2023-05-16T07:58:15;19.20;;;15.70;;
2712;SDS011;1366;47.988;7.856;2023-05-16T08:00:41;24.30;;;17.03;;
2712;SDS011;1366;47.988;7.856;2023-05-16T08:03:07;18.93;;;14.93;;
2712;SDS011;1366;47.988;7.856;2023-05-16T08:05:34;19.43;;;16.17;;
2712;SDS011;1366;47.988;7.856;2023-05-16T08:08:00;22.80;;;15.80;;
2712;SDS011;1366;47.988;7.856;2023-05-16T08:10:26;18.87;;;15.00;;
2712;SDS011;1366;47.988;7.856;2023-05-16T08:12:52;21.17;;;14.63;;
2712;SDS011;1366;47.988;7.856;2023-05-16T08:15:18;20.83;;;15.17;;
2712;SDS011;1366;47.988;7.856;2023-05-16T08:17:45;22.73;;;16.73;;
2712;SDS011;1366;47.988;7.856;2023-05-16T08:20:11;21.00;;;16.63;;
2712;SDS011;1366;47.988;7.856;2023-05-16T08:22:37;19.43;;;15.20;;
2712;SDS011;1366;47.988;7.856;2023-05-16T08:25:04;24.33;;;17.70;;
2712;SDS011;1366;47.988;7.856;2023-05-16T08:27:30;19.43;;;14.03;;
2712;SDS011;1366;47.988;7.856;2023-05-16T08:29:56;22.23;;;15.30;;
2712;SDS011;1366;47.988;7.856;2023-05-16T08:32:22;21.00;;;14.60;;
2712;SDS011;1366;47.988;7.856;2023-05-16T08:34:48;20.57;;;15.80;;
2712;SDS011;1366;47.988;7.856;2023-05-16T08:37:14;20.50;;;16.00;;
2712;SDS011;1366;47.988;7.856;2023-05-16T08:39:40;23.33;;;16.40;;
2712;SDS011;1366;47.988;7.856;2023-05-16T08:42:07;20.17;;;16.40;;
2712;SDS011;1366;47.988;7.856;2023-05-16T08:44:33;19.97;;;15.27;;
2712;SDS011;1366;47.988;7.856;2023-05-16T08:47:01;18.47;;;15.07;;
2712;SDS011;1366;47.988;7.856;2023-05-16T08:49:28;16.90;;;13.70;;
2712;SDS011;1366;47.988;7.856;2023-05-16T08:51:55;18.53;;;14.27;;
2712;SDS011;1366;47.988;7.856;2023-05-16T08:54:22;22.23;;;15.27;;
2712;SDS011;1366;47.988;7.856;2023-05-16T08:56:48;19.10;;;15.23;;
2712;SDS011;1366;47.988;7.856;2023-05-16T08:59:14;16.57;;;13.93;;
2712;SDS011;1366;47.988;7.856;2023-05-16T09:01:40;19.60;;;15.13;;
2712;SDS011;1366;47.988;7.856;2023-05-16T09:04:07;17.90;;;14.17;;
2712;SDS011;1366;47.988;7.856;2023-05-16T09:06:36;19.00;;;15.60;;
2712;SDS011;1366;47.988;7.856;2023-05-16T09:09:02;17.83;;;14.43;;
2712;SDS011;1366;47.988;7.856;2023-05-16T09:11:31;20.60;;;15.20;;
2712;SDS011;1366;47.988;7.856;2023-05-16T09:13:57;18.50;;;15.47;;
2712;SDS011;1366;47.988;7.856;2023-05-16T09:16:23;22.20;;;16.60;;
2712;SDS011;1366;47.988;7.856;2023-05-16T09:18:53;18.37;;;13.60;;
2712;SDS011;1366;47.988;7.856;2023-05-16T09:21:21;17.50;;;15.33;;
2712;SDS011;1366;47.988;7.856;2023-05-16T09:23:47;25.50;;;16.97;;
2712;SDS011;1366;47.988;7.856;2023-05-16T09:26:14;19.90;;;14.40;;
2712;SDS011;1366;47.988;7.856;2023-05-16T09:28:40;23.50;;;16.60;;
2712;SDS011;1366;47.988;7.856;2023-05-16T09:31:19;18.50;;;14.90;;
2712;SDS011;1366;47.988;7.856;2023-05-16T09:33:45;20.10;;;15.00;;
2712;SDS011;1366;47.988;7.856;2023-05-16T09:36:13;22.63;;;15.67;;
2712;SDS011;1366;47.988;7.856;2023-05-16T09:38:40;20.30;;;15.90;;
2712;SDS011;1366;47.988;7.856;2023-05-16T09:41:07;20.80;;;15.67;;
2712;SDS011;1366;47.988;7.856;2023-05-16T09:43:36;21.83;;;17.20;;
2712;SDS011;1366;47.988;7.856;2023-05-16T09:46:02;22.87;;;16.40;;
2712;SDS011;1366;47.988;7.856;2023-05-16T09:48:28;21.37;;;16.33;;
2712;SDS011;1366;47.988;7.856;2023-05-16T09:50:55;19.33;;;14.77;;
2712;SDS011;1366;47.988;7.856;2023-05-16T09:53:25;20.70;;;16.33;;
2712;SDS011;1366;47.988;7.856;2023-05-16T09:58:47;23.60;;;16.00;;
2712;SDS011;1366;47.988;7.856;2023-05-16T10:01:16;20.93;;;14.90;;
2712;SDS011;1366;47.988;7.856;2023-05-16T10:03:43;23.03;;;16.57;;
2712;SDS011;1366;47.988;7.856;2023-05-16T10:06:09;22.40;;;16.40;;
2712;SDS011;1366;47.988;7.856;2023-05-16T10:08:35;27.53;;;17.37;;
2712;SDS011;1366;47.988;7.856;2023-05-16T10:11:02;20.93;;;16.23;;
2712;SDS011;1366;47.988;7.856;2023-05-16T10:13:29;25.40;;;16.60;;
2712;SDS011;1366;47.988;7.856;2023-05-16T10:15:56;21.10;;;14.80;;
2712;SDS011;1366;47.988;7.856;2023-05-16T10:18:23;21.10;;;16.13;;
2712;SDS011;1366;47.988;7.856;2023-05-16T10:20:54;21.50;;;15.37;;
2712;SDS011;1366;47.988;7.856;2023-05-16T10:23:20;22.63;;;14.63;;
2712;SDS011;1366;47.988;7.856;2023-05-16T10:25:47;23.57;;;15.87;;
2712;SDS011;1366;47.988;7.856;2023-05-16T10:28:14;21.97;;;16.03;;
2712;SDS011;1366;47.988;7.856;2023-05-16T10:30:41;17.70;;;15.17;;
2712;SDS011;1366;47.988;7.856;2023-05-16T10:33:09;20.93;;;14.90;;
2712;SDS011;1366;47.988;7.856;2023-05-16T10:35:35;19.47;;;14.10;;
2712;SDS011;1366;47.988;7.856;2023-05-16T10:38:02;19.97;;;14.93;;
2712;SDS011;1366;47.988;7.856;2023-05-16T10:40:28;18.20;;;14.57;;
2712;SDS011;1366;47.988;7.856;2023-05-16T10:42:56;17.13;;;14.60;;
2712;SDS011;1366;47.988;7.856;2023-05-16T10:45:22;22.27;;;15.53;;
2712;SDS011;1366;47.988;7.856;2023-05-16T10:47:55;17.63;;;13.37;;
2712;SDS011;1366;47.988;7.856;2023-05-16T10:53:14;19.10;;;13.00;;
2712;SDS011;1366;47.988;7.856;2023-05-16T10:55:44;18.30;;;13.30;;
2712;SDS011;1366;47.988;7.856;2023-05-16T10:58:17;30.03;;;20.20;;
2712;SDS011;1366;47.988;7.856;2023-05-16T11:00:43;18.63;;;14.50;;
2712;SDS011;1366;47.988;7.856;2023-05-16T11:03:18;16.70;;;13.17;;
2712;SDS011;1366;47.988;7.856;2023-05-16T11:05:50;16.37;;;12.87;;
2712;SDS011;1366;47.988;7.856;2023-05-16T11:08:17;16.13;;;12.60;;
2712;SDS011;1366;47.988;7.856;2023-05-16T11:10:43;16.43;;;13.30;;
2712;SDS011;1366;47.988;7.856;2023-05-16T11:13:10;13.97;;;11.63;;
2712;SDS011;1366;47.988;7.856;2023-05-16T11:15:36;15.53;;;12.10;;
2712;SDS011;1366;47.988;7.856;2023-05-16T11:18:08;15.30;;;11.97;;
2712;SDS011;1366;47.988;7.856;2023-05-16T11:20:35;16.03;;;11.63;;
2712;SDS011;1366;47.988;7.856;2023-05-16T11:25:53;14.50;;;10.87;;
2712;SDS011;1366;47.988;7.856;2023-05-16T11:28:19;12.43;;;10.20;;
2712;SDS011;1366;47.988;7.856;2023-05-16T11:30:50;11.97;;;9.40;;
2712;SDS011;1366;47.988;7.856;2023-05-16T11:33:19;11.00;;;9.43;;
2712;SDS011;1366;47.988;7.856;2023-05-16T11:36:01;13.10;;;10.00;;
2712;SDS011;1366;47.988;7.856;2023-05-16T11:38:28;10.03;;;9.00;;
2712;SDS011;1366;47.988;7.856;2023-05-16T11:41:00;8.97;;;8.17;;
2712;SDS011;1366;47.988;7.856;2023-05-16T11:43:26;13.57;;;9.73;;
2712;SDS011;1366;47.988;7.856;2023-05-16T11:45:55;10.03;;;8.90;;
2712;SDS011;1366;47.988;7.856;2023-05-16T11:48:24;10.67;;;9.20;;
2712;SDS011;1366;47.988;7.856;2023-05-16T11:50:50;13.43;;;10.00;;
2712;SDS011;1366;47.988;7.856;2023-05-16T11:53:17;14.43;;;10.30;;
2712;SDS011;1366;47.988;7.856;2023-05-16T11:55:44;11.80;;;9.70;;
2712;SDS011;1366;47.988;7.856;2023-05-16T11:58:16;13.23;;;9.90;;
2712;SDS011;1366;47.988;7.856;2023-05-16T12:00:48;13.93;;;9.87;;
2712;SDS011;1366;47.988;7.856;2023-05-16T12:03:14;13.10;;;8.97;;
2712;SDS011;1366;47.988;7.856;2023-05-16T12:05:50;10.93;;;8.30;;
2712;SDS011;1366;47.988;7.856;2023-05-16T12:08:17;10.10;;;8.20;;
2712;SDS011;1366;47.988;7.856;2023-05-16T12:10:44;9.47;;;8.23;;
2712;SDS011;1366;47.988;7.856;2023-05-16T12:13:10;11.30;;;7.73;;
2712;SDS011;1366;47.988;7.856;2023-05-16T12:15:36;8.17;;;6.90;;
2712;SDS011;1366;47.988;7.856;2023-05-16T12:18:02;10.37;;;7.33;;
2712;SDS011;1366;47.988;7.856;2023-05-16T12:20:28;7.40;;;6.60;;
2712;SDS011;1366;47.988;7.856;2023-05-16T12:22:56;7.17;;;6.47;;
2712;SDS011;1366;47.988;7.856;2023-05-16T12:25:32;6.77;;;6.07;;
2712;SDS011;1366;47.988;7.856;2023-05-16T12:28:01;6.70;;;6.10;;
2712;SDS011;1366;47.988;7.856;2023-05-16T12:30:27;7.40;;;6.30;;
2712;SDS011;1366;47.988;7.856;2023-05-16T12:32:55;6.80;;;6.00;;
2712;SDS011;1366;47.988;7.856;2023-05-16T12:35:21;6.90;;;6.20;;
2712;SDS011;1366;47.988;7.856;2023-05-16T12:37:48;5.93;;;5.30;;
2712;SDS011;1366;47.988;7.856;2023-05-16T12:40:15;6.30;;;5.70;;
2712;SDS011;1366;47.988;7.856;2023-05-16T12:42:45;8.17;;;5.40;;
2712;SDS011;1366;47.988;7.856;2023-05-16T12:45:14;6.03;;;5.53;;
2712;SDS011;1366;47.988;7.856;2023-05-16T12:47:41;5.70;;;5.10;;
2712;SDS011;1366;47.988;7.856;2023-05-16T12:50:10;5.70;;;5.20;;
2712;SDS011;1366;47.988;7.856;2023-05-16T12:52:45;5.60;;;5.20;;
2712;SDS011;1366;47.988;7.856;2023-05-16T12:55:11;5.67;;;5.17;;
2712;SDS011;1366;47.988;7.856;2023-05-16T12:57:40;6.00;;;5.50;;
2712;SDS011;1366;47.988;7.856;2023-05-16T13:00:07;6.93;;;6.27;;
2712;SDS011;1366;47.988;7.856;2023-05-16T13:02:34;6.63;;;5.93;;
2712;SDS011;1366;47.988;7.856;2023-05-16T13:05:00;6.43;;;5.90;;
2712;SDS011;1366;47.988;7.856;2023-05-16T13:07:26;6.40;;;5.90;;
2712;SDS011;1366;47.988;7.856;2023-05-16T13:09:52;6.30;;;5.70;;
2712;SDS011;1366;47.988;7.856;2023-05-16T13:12:18;6.63;;;5.80;;
2712;SDS011;1366;47.988;7.856;2023-05-16T13:14:45;5.90;;;5.40;;
2712;SDS011;1366;47.988;7.856;2023-05-16T13:17:11;6.10;;;5.60;;
2712;SDS011;1366;47.988;7.856;2023-05-16T13:19:37;7.03;;;6.53;;
2712;SDS011;1366;47.988;7.856;2023-05-16T13:22:03;6.10;;;5.50;;
2712;SDS011;1366;47.988;7.856;2023-05-16T13:24:29;5.90;;;5.40;;
2712;SDS011;1366;47.988;7.856;2023-05-16T13:26:55;6.23;;;5.30;;
2712;SDS011;1366;47.988;7.856;2023-05-16T13:29:23;5.43;;;5.03;;
2712;SDS011;1366;47.988;7.856;2023-05-16T13:31:49;5.23;;;4.73;;
2712;SDS011;1366;47.988;7.856;2023-05-16T13:34:15;4.50;;;4.20;;
2712;SDS011;1366;47.988;7.856;2023-05-16T13:36:41;4.73;;;4.33;;
2712;SDS011;1366;47.988;7.856;2023-05-16T13:39:10;5.03;;;4.63;;
2712;SDS011;1366;47.988;7.856;2023-05-16T13:41:37;4.13;;;3.87;;
2712;SDS011;1366;47.988;7.856;2023-05-16T13:44:04;3.63;;;3.43;;
2712;SDS011;1366;47.988;7.856;2023-05-16T13:46:30;4.00;;;3.70;;
2712;SDS011;1366;47.988;7.856;2023-05-16T13:48:56;3.70;;;3.33;;
2712;SDS011;1366;47.988;7.856;2023-05-16T13:51:22;5.03;;;3.23;;
2712;SDS011;1366;47.988;7.856;2023-05-16T13:53:48;3.93;;;3.63;;
2712;SDS011;1366;47.988;7.856;2023-05-16T13:56:14;3.87;;;3.57;;
2712;SDS011;1366;47.988;7.856;2023-05-16T13:58:40;3.50;;;3.30;;
2712;SDS011;1366;47.988;7.856;2023-05-16T14:01:06;3.57;;;3.33;;
2712;SDS011;1366;47.988;7.856;2023-05-16T14:03:32;3.97;;;3.67;;
2712;SDS011;1366;47.988;7.856;2023-05-16T14:06:00;3.70;;;3.47;;
2712;SDS011;1366;47.988;7.856;2023-05-16T14:08:26;3.87;;;3.57;;
2712;SDS011;1366;47.988;7.856;2023-05-16T14:10:53;4.07;;;3.70;;
2712;SDS011;1366;47.988;7.856;2023-05-16T14:13:19;4.13;;;3.83;;
2712;SDS011;1366;47.988;7.856;2023-05-16T14:15:45;4.30;;;3.83;;
2712;SDS011;1366;47.988;7.856;2023-05-16T14:18:11;5.57;;;4.40;;
2712;SDS011;1366;47.988;7.856;2023-05-16T14:20:38;4.20;;;3.90;;
2712;SDS011;1366;47.988;7.856;2023-05-16T14:23:04;4.03;;;3.73;;
2712;SDS011;1366;47.988;7.856;2023-05-16T14:25:30;5.53;;;5.13;;
2712;SDS011;1366;47.988;7.856;2023-05-16T14:27:56;5.23;;;4.63;;
2712;SDS011;1366;47.988;7.856;2023-05-16T14:30:23;4.83;;;4.40;;
2712;SDS011;1366;47.988;7.856;2023-05-16T14:32:50;4.73;;;4.40;;
2712;SDS011;1366;47.988;7.856;2023-05-16T14:35:16;5.33;;;4.93;;
2712;SDS011;1366;47.988;7.856;2023-05-16T14:37:42;5.67;;;4.60;;
2712;SDS011;1366;47.988;7.856;2023-05-16T14:40:08;5.10;;;4.70;;
2712;SDS011;1366;47.988;7.856;2023-05-16T14:42:34;5.07;;;4.63;;
2712;SDS011;1366;47.988;7.856;2023-05-16T14:45:01;4.73;;;4.30;;
2712;SDS011;1366;47.988;7.856;2023-05-16T14:47:27;4.77;;;4.37;;
2712;SDS011;1366;47.988;7.856;2023-05-16T14:49:55;4.70;;;4.37;;
2712;SDS011;1366;47.988;7.856;2023-05-16T14:52:21;7.30;;;6.80;;
2712;SDS011;1366;47.988;7.856;2023-05-16T14:54:47;5.30;;;4.90;;
2712;SDS011;1366;47.988;7.856;2023-05-16T14:57:13;4.27;;;3.97;;
2712;SDS011;1366;47.988;7.856;2023-05-16T14:59:39;4.40;;;4.10;;
2712;SDS011;1366;47.988;7.856;2023-05-16T15:02:05;6.00;;;4.27;;
2712;SDS011;1366;47.988;7.856;2023-05-16T15:04:31;4.10;;;3.80;;
2712;SDS011;1366;47.988;7.856;2023-05-16T15:06:57;4.27;;;3.93;;
2712;SDS011;1366;47.988;7.856;2023-05-16T15:09:23;3.87;;;3.60;;
2712;SDS011;1366;47.988;7.856;2023-05-16T15:11:49;4.40;;;4.10;;
2712;SDS011;1366;47.988;7.856;2023-05-16T15:14:15;5.07;;;3.70;;
2712;SDS011;1366;47.988;7.856;2023-05-16T15:16:41;4.00;;;3.70;;
2712;SDS011;1366;47.988;7.856;2023-05-16T15:19:08;4.03;;;3.73;;
2712;SDS011;1366;47.988;7.856;2023-05-16T15:21:34;4.87;;;4.57;;
2712;SDS011;1366;47.988;7.856;2023-05-16T15:24:00;4.30;;;3.70;;